Time;durP1;ratioP1;P1;durP2;ratioP2;P2;SDS_P1;SDS_P2;PMS_P1;PMS_P2;Temp;Humidity;BMP_temperature;BMP_pressure;BME280_temperature;BME280_humidity;BME280_pressure;Samples;Min_cycle;Max_cycle;Signal;HPM_P1;HPM_P2
2022/06/08 00:00:20;;;;;;;5.82;1.20;;;13.10;99.90;;;-146.41;100.00;57768.22;4970339;28;20128;-66
2022/06/08 00:03:19;;;;;;;2.97;1.23;;;13.00;99.90;;;-146.41;100.00;57768.22;4986568;28;20129;-65
2022/06/08 00:05:46;;;;;;;3.30;1.30;;;13.00;99.90;;;-146.41;100.00;57768.22;4987425;28;20061;-66
2022/06/08 00:08:13;;;;;;;3.92;1.20;;;13.00;99.90;;;-146.41;100.00;57768.22;4987615;28;20401;-65
2022/06/08 00:10:40;;;;;;;4.53;1.25;;;12.90;99.90;;;-146.41;100.00;57768.22;4982045;28;20480;-65
2022/06/08 00:13:08;;;;;;;2.97;1.20;;;12.90;99.90;;;-146.41;100.00;57768.22;4985190;28;20074;-66
2022/06/08 00:15:35;;;;;;;3.08;1.15;;;13.00;99.90;;;-146.41;100.00;57768.22;4994319;28;20145;-64
2022/06/08 00:18:03;;;;;;;4.40;1.13;;;13.00;99.90;;;-146.41;100.00;57768.22;4991115;28;20140;-64
2022/06/08 00:20:30;;;;;;;4.82;1.20;;;12.90;99.90;;;-146.41;100.00;57768.22;4992283;28;20124;-64
2022/06/08 00:22:57;;;;;;;4.95;1.25;;;12.90;99.90;;;-146.41;100.00;57768.22;4993055;28;20062;-64
2022/06/08 00:25:25;;;;;;;3.05;1.10;;;12.80;99.90;;;-146.41;100.00;57768.22;4968573;28;20053;-64
2022/06/08 00:27:52;;;;;;;8.23;1.40;;;12.80;99.90;;;-146.41;100.00;57768.22;4988899;28;20145;-66
2022/06/08 00:30:19;;;;;;;7.50;1.55;;;;;;;-146.41;100.00;57768.22;4989034;28;20141;-64
2022/06/08 00:32:46;;;;;;;2.65;1.17;;;12.70;99.90;;;-146.41;100.00;57768.22;4988242;28;20051;-64
2022/06/08 00:35:13;;;;;;;6.25;1.38;;;12.70;99.90;;;-146.41;100.00;57768.22;4992067;28;20487;-64
2022/06/08 00:37:41;;;;;;;3.83;1.23;;;12.70;99.90;;;-146.41;100.00;57768.22;4988444;28;20077;-64
2022/06/08 00:40:11;;;;;;;3.95;1.27;;;12.70;99.90;;;-146.41;100.00;57768.22;4971491;28;20129;-63
2022/06/08 00:42:40;;;;;;;8.40;1.30;;;12.60;99.90;;;-146.41;100.00;57768.22;4974366;28;20129;-66
2022/06/08 00:45:22;;;;;;;4.97;1.25;;;12.60;99.90;;;-146.41;100.00;57768.22;4987251;28;20526;-64
2022/06/08 00:48:00;;;;;;;4.82;1.40;;;12.60;99.90;;;-146.41;100.00;57768.22;4988625;28;20141;-65
2022/06/08 00:50:46;;;;;;;5.10;1.40;;;12.50;99.90;;;-146.41;100.00;57768.22;4990056;28;20169;-65
2022/06/08 00:53:17;;;;;;;3.38;1.10;;;12.50;99.90;;;-146.41;100.00;57768.22;4993113;28;20052;-65
2022/06/08 00:55:45;;;;;;;3.38;1.05;;;12.60;99.90;;;-146.41;100.00;57768.22;4976084;28;20153;-65
2022/06/08 00:58:24;;;;;;;4.63;1.23;;;12.80;99.90;;;-146.41;100.00;57768.22;4988212;28;20072;-66
2022/06/08 01:00:52;;;;;;;4.18;1.27;;;13.00;99.90;;;-146.41;100.00;57768.22;4990920;28;20167;-66
2022/06/08 01:03:19;;;;;;;4.45;1.40;;;13.00;99.90;;;-146.41;100.00;57768.22;4988794;28;20073;-66
2022/06/08 01:06:15;;;;;;;8.57;1.42;;;13.10;99.90;;;-146.41;100.00;57768.22;4991521;28;20145;-64
2022/06/08 01:08:50;;;;;;;5.20;1.10;;;13.10;99.90;;;-146.41;100.00;57768.22;4988972;28;20074;-66
2022/06/08 01:11:39;;;;;;;2.88;1.20;;;13.10;99.90;;;-146.41;100.00;57768.22;4972589;28;20141;-67
2022/06/08 01:14:12;;;;;;;3.25;1.27;;;13.20;99.90;;;-146.41;100.00;57768.22;4967092;28;20038;-66
2022/06/08 01:16:45;;;;;;;;;;;13.20;99.90;;;-146.41;100.00;57768.22;4993018;28;20181;-65
2022/06/08 01:19:12;;;;;;;4.85;1.23;;;13.30;99.90;;;-146.41;100.00;57768.22;4973475;28;20899;-65
2022/06/08 01:21:39;;;;;;;3.90;1.20;;;13.30;99.90;;;-146.41;100.00;57768.22;4989278;28;20055;-66
2022/06/08 01:24:10;;;;;;;5.55;1.38;;;13.40;99.90;;;-146.41;100.00;57768.22;4992993;28;20150;-65
2022/06/08 01:26:46;;;;;;;6.28;1.25;;;13.40;99.90;;;-146.41;100.00;57768.22;4972930;28;20583;-66
2022/06/08 01:29:26;;;;;;;3.10;1.10;;;13.40;99.90;;;-146.41;100.00;57768.22;4984662;28;20587;-66
2022/06/08 01:32:12;;;;;;;5.80;1.33;;;13.50;99.90;;;-146.41;100.00;57768.22;4978734;28;20069;-65
2022/06/08 01:35:13;;;;;;;6.50;1.30;;;13.50;99.90;;;-146.41;100.00;57768.22;4977412;28;20169;-66
2022/06/08 01:38:07;;;;;;;3.60;0.95;;;13.60;99.90;;;-146.41;100.00;57768.22;4988059;28;20166;-67
2022/06/08 01:41:04;;;;;;;3.92;1.00;;;13.60;99.90;;;-146.41;100.00;57768.22;4992034;28;20073;-67
2022/06/08 01:44:14;;;;;;;8.23;1.30;;;13.70;99.90;;;-146.41;100.00;57768.22;4975643;28;20458;-66
2022/06/08 01:47:06;;;;;;;5.13;1.13;;;13.80;99.90;;;-146.41;100.00;57768.22;4991338;28;20089;-66
2022/06/08 01:49:51;;;;;;;6.35;1.20;;;13.80;99.90;;;-146.41;100.00;57768.22;4991524;28;20092;-65
2022/06/08 01:52:30;;;;;;;8.07;1.35;;;13.90;99.90;;;-146.41;100.00;57768.22;4991252;28;20248;-66
2022/06/08 01:55:24;;;;;;;5.88;1.13;;;13.80;99.90;;;-146.41;100.00;57768.22;4990245;28;20113;-65
2022/06/08 01:58:12;;;;;;;6.65;1.33;;;13.80;99.90;;;-146.41;100.00;57768.22;4979337;28;20128;-67
2022/06/08 02:00:45;;;;;;;4.38;1.23;;;13.90;99.90;;;-146.41;100.00;57768.22;4991233;28;20141;-66
2022/06/08 02:03:59;;;;;;;4.07;1.20;;;13.90;99.90;;;-146.41;100.00;57768.22;4976634;28;20097;-65
2022/06/08 02:06:41;;;;;;;6.53;1.25;;;13.80;99.90;;;-146.41;100.00;57768.22;4942934;28;20081;-65
2022/06/08 02:09:17;;;;;;;3.08;1.00;;;13.80;99.90;;;-146.41;100.00;57768.22;4991178;28;20081;-65
2022/06/08 02:11:55;;;;;;;4.07;1.10;;;13.70;99.90;;;-146.41;100.00;57768.22;4973357;28;20133;-65
2022/06/08 02:14:37;;;;;;;5.03;1.10;;;13.70;99.90;;;-146.41;100.00;57768.22;4989196;28;20133;-65
2022/06/08 02:17:37;;;;;;;5.00;1.20;;;13.60;99.90;;;-146.41;100.00;57768.22;4990758;28;20046;-65
2022/06/08 02:20:20;;;;;;;4.50;1.10;;;13.60;99.90;;;-146.41;100.00;57768.22;4992269;28;20074;-66
2022/06/08 02:23:02;;;;;;;6.07;1.38;;;13.60;99.90;;;-146.41;100.00;57768.22;4973783;28;20425;-65
2022/06/08 02:25:55;;;;;;;6.28;1.27;;;13.60;99.90;;;-146.41;100.00;57768.22;4973918;28;20580;-65
2022/06/08 02:28:37;;;;;;;6.07;1.30;;;13.50;99.90;;;-146.41;100.00;57768.22;4991610;28;20141;-65
2022/06/08 02:31:37;;;;;;;8.93;1.17;;;13.40;99.90;;;-146.41;100.00;57768.22;4977090;28;20487;-66
2022/06/08 02:34:29;;;;;;;8.02;1.20;;;13.40;99.90;;;-146.41;100.00;57768.22;4969767;28;20050;-64
2022/06/08 02:37:22;;;;;;;8.13;1.40;;;13.40;99.90;;;-146.41;100.00;57768.22;4980467;28;20149;-66
2022/06/08 02:40:06;;;;;;;6.13;1.48;;;13.30;99.90;;;-146.41;100.00;57768.22;4994146;28;20142;-65
2022/06/08 02:42:43;;;;;;;7.25;1.30;;;13.30;99.90;;;-146.41;100.00;57768.22;4970118;28;20089;-66
2022/06/08 02:45:37;;;;;;;8.48;1.63;;;13.20;99.90;;;-146.41;100.00;57768.22;4992379;28;20456;-66
2022/06/08 02:48:09;;;;;;;;;;;13.20;99.90;;;-146.41;100.00;57768.22;4991204;28;20463;-66
2022/06/08 02:50:39;;;;;;;7.88;1.70;;;13.20;99.90;;;-146.41;100.00;57768.22;4993348;28;19925;-67
2022/06/08 02:53:19;;;;;;;4.00;1.30;;;13.20;99.90;;;-146.41;100.00;57768.22;4975965;28;20513;-65
2022/06/08 02:56:05;;;;;;;7.50;1.70;;;13.10;99.90;;;-146.41;100.00;57768.22;4989463;28;20547;-66
2022/06/08 02:58:48;;;;;;;3.80;1.40;;;13.10;99.90;;;-146.41;100.00;57768.22;4987548;28;20572;-67
2022/06/08 03:01:42;;;;;;;8.20;1.75;;;13.10;99.90;;;-146.41;100.00;57768.22;4989943;28;20088;-65
2022/06/08 03:04:25;;;;;;;6.35;1.40;;;13.10;99.90;;;-146.41;100.00;57768.22;4990939;28;20057;-67
2022/06/08 03:07:00;;;;;;;6.82;1.33;;;13.10;99.90;;;-146.41;100.00;57768.22;4989776;28;20117;-67
2022/06/08 03:09:28;;;;;;;6.70;1.50;;;13.10;99.90;;;-146.41;100.00;57768.22;4974139;28;20452;-66
2022/06/08 03:12:08;;;;;;;5.13;1.20;;;13.20;99.90;;;-146.41;100.00;57768.22;4995431;28;20169;-64
2022/06/08 03:14:35;;;;;;;5.30;1.80;;;13.20;99.90;;;-146.41;100.00;57768.22;4974363;28;20504;-67
2022/06/08 03:17:07;;;;;;;3.60;1.25;;;13.20;99.90;;;-146.41;100.00;57768.22;4990721;28;20060;-66
2022/06/08 03:19:36;;;;;;;4.22;1.23;;;13.20;99.90;;;-146.41;100.00;57768.22;4988274;28;20042;-66
2022/06/08 03:22:05;;;;;;;6.18;1.52;;;13.20;99.90;;;-146.41;100.00;57768.22;4990689;28;20128;-67
2022/06/08 03:24:32;;;;;;;6.28;1.27;;;13.20;99.90;;;-146.41;100.00;57768.22;4989497;28;20050;-65
2022/06/08 03:27:06;;;;;;;5.00;1.40;;;13.30;99.90;;;-146.41;100.00;57768.22;4989242;28;20204;-65
2022/06/08 03:29:33;;;;;;;9.10;1.40;;;13.30;99.90;;;-146.41;100.00;57768.22;4991751;28;20077;-65
2022/06/08 03:32:01;;;;;;;4.30;1.20;;;13.30;99.90;;;-146.41;100.00;57768.22;4987637;28;20085;-66
2022/06/08 03:34:28;;;;;;;5.97;1.40;;;13.30;99.90;;;-146.41;100.00;57768.22;4986714;28;20136;-67
2022/06/08 03:36:55;;;;;;;4.95;1.55;;;13.30;99.90;;;-146.41;100.00;57768.22;4984080;28;20043;-66
2022/06/08 03:39:22;;;;;;;5.63;1.02;;;13.30;99.90;;;-146.41;100.00;57768.22;4985848;28;20445;-66
2022/06/08 03:41:49;;;;;;;6.28;1.20;;;13.30;99.90;;;-146.41;100.00;57768.22;4990340;28;20070;-67
2022/06/08 03:44:16;;;;;;;4.90;1.25;;;13.30;99.90;;;-146.41;100.00;57768.22;4995432;28;20145;-66
2022/06/08 03:46:57;;;;;;;5.63;1.20;;;13.30;99.90;;;-146.41;100.00;57768.22;4994415;28;20125;-67
2022/06/08 03:49:25;;;;;;;6.68;1.40;;;13.20;99.90;;;-146.41;100.00;57768.22;4992145;28;20065;-66
2022/06/08 03:51:57;;;;;;;4.53;1.20;;;13.20;99.90;;;-146.41;100.00;57768.22;4990772;28;20089;-66
2022/06/08 03:54:29;;;;;;;4.93;1.35;;;13.20;99.90;;;-146.41;100.00;57768.22;4969582;28;20043;-64
2022/06/08 03:57:03;;;;;;;8.30;1.52;;;13.20;99.90;;;-146.41;100.00;57768.22;4991846;28;20469;-65
2022/06/08 03:59:35;;;;;;;3.97;1.48;;;13.20;99.90;;;-146.41;100.00;57768.22;4974727;28;20046;-65
2022/06/08 04:02:03;;;;;;;4.28;1.10;;;13.20;99.90;;;-146.41;100.00;57768.22;4974888;28;20132;-65
2022/06/08 04:04:30;;;;;;;5.15;1.33;;;13.10;99.90;;;-146.41;100.00;57768.22;4978736;28;20046;-65
2022/06/08 04:06:57;;;;;;;6.07;1.20;;;13.10;99.90;;;-146.41;100.00;57768.22;4990571;28;20088;-67
2022/06/08 04:09:25;;;;;;;6.35;1.40;;;13.10;99.90;;;-146.41;100.00;57768.22;4984109;28;20050;-66
2022/06/08 04:11:51;;;;;;;6.55;1.30;;;13.10;99.90;;;-146.41;100.00;57768.22;4987925;28;20132;-67
2022/06/08 04:14:20;;;;;;;6.78;1.33;;;13.20;99.90;;;-146.41;100.00;57768.22;4949967;28;20523;-66
2022/06/08 04:16:48;;;;;;;4.88;1.27;;;13.20;99.90;;;-146.41;100.00;57768.22;4988468;28;20042;-66
2022/06/08 04:19:15;;;;;;;4.55;1.45;;;13.10;99.90;;;-146.41;100.00;57768.22;4991682;28;20085;-66
2022/06/08 04:21:42;;;;;;;5.22;1.00;;;13.10;99.90;;;-146.41;100.00;57768.22;4989635;28;20053;-67
2022/06/08 04:24:13;;;;;;;4.20;0.93;;;13.10;99.90;;;-146.41;100.00;57768.22;4990393;28;20078;-66
2022/06/08 04:26:41;;;;;;;4.25;1.17;;;13.20;99.90;;;-146.41;100.00;57768.22;4970541;28;20084;-67
2022/06/08 04:29:10;;;;;;;6.85;1.50;;;13.20;99.90;;;-146.41;100.00;57768.22;4990248;28;20093;-65
2022/06/08 04:31:37;;;;;;;4.30;1.20;;;13.20;99.90;;;-146.41;100.00;57768.22;4987497;28;20133;-66
2022/06/08 04:34:08;;;;;;;4.45;1.27;;;13.20;99.90;;;-146.41;100.00;57768.22;4989123;28;20080;-66
2022/06/08 04:36:37;;;;;;;8.00;1.55;;;13.30;99.90;;;-146.41;100.00;57768.22;4990700;28;20070;-65
2022/06/08 04:39:08;;;;;;;8.93;1.30;;;13.40;99.90;;;-146.41;100.00;57768.22;4989073;28;20053;-66
2022/06/08 04:41:36;;;;;;;6.07;1.20;;;13.40;99.90;;;-146.41;100.00;57768.22;4967833;28;20445;-67
2022/06/08 04:44:04;;;;;;;7.30;1.30;;;13.50;99.90;;;-146.41;100.00;57768.22;4986003;28;20634;-65
2022/06/08 04:46:32;;;;;;;4.30;1.17;;;13.50;99.90;;;-146.41;100.00;57768.22;4989606;28;20047;-65
2022/06/08 04:48:59;;;;;;;4.00;0.80;;;13.60;99.90;;;-146.41;100.00;57768.22;4993813;28;20114;-67
2022/06/08 04:51:26;;;;;;;5.22;1.00;;;13.60;99.90;;;-146.41;100.00;57768.22;4997100;28;20501;-67
2022/06/08 04:53:53;;;;;;;6.05;1.17;;;13.70;99.90;;;-146.41;100.00;57768.22;4990384;28;20363;-66
2022/06/08 04:56:20;;;;;;;6.18;1.27;;;13.80;99.90;;;-146.41;100.00;57768.22;4992006;28;20518;-66
2022/06/08 04:58:47;;;;;;;5.10;1.00;;;13.80;99.90;;;-146.41;100.00;57768.22;4993458;28;20121;-67
2022/06/08 05:01:14;;;;;;;4.80;0.98;;;13.90;99.90;;;-146.41;100.00;57768.22;4991861;28;20093;-65
2022/06/08 05:03:42;;;;;;;4.85;0.90;;;14.10;99.90;;;-146.41;100.00;57768.22;4990014;28;20420;-67
2022/06/08 05:06:10;;;;;;;4.97;0.77;;;14.20;99.90;;;-146.41;100.00;57768.22;4995077;28;20760;-66
2022/06/08 05:08:37;;;;;;;3.30;0.95;;;14.40;99.90;;;-146.41;100.00;57768.22;4992546;28;20137;-66
2022/06/08 05:11:05;;;;;;;4.88;0.95;;;14.50;99.90;;;-146.41;100.00;57768.22;4990338;28;20128;-65
2022/06/08 05:13:33;;;;;;;2.92;0.80;;;14.60;99.90;;;-146.41;100.00;57768.22;4971675;28;20054;-65
2022/06/08 05:16:01;;;;;;;4.80;0.82;;;14.80;99.90;;;-146.41;100.00;57768.22;4988306;28;20132;-64
2022/06/08 05:18:28;;;;;;;6.88;1.40;;;14.90;99.90;;;-146.41;100.00;57768.22;4990700;28;20129;-66
2022/06/08 05:20:57;;;;;;;3.92;0.68;;;15.00;99.90;;;-146.41;100.00;57768.22;4993810;28;20054;-67
2022/06/08 05:23:32;;;;;;;4.30;1.00;;;15.20;99.90;;;-146.41;100.00;57768.22;4999596;28;20130;-67
2022/06/08 05:26:02;;;;;;;8.63;1.10;;;15.30;99.90;;;-146.41;100.00;57768.22;4997186;28;20058;-67
2022/06/08 05:28:29;;;;;;;5.65;0.88;;;15.40;99.90;;;-146.41;100.00;57768.22;4994594;28;20046;-66
2022/06/08 05:30:57;;;;;;;3.67;0.90;;;15.50;99.90;;;-146.41;100.00;57768.22;4995935;28;20583;-65
2022/06/08 05:33:26;;;;;;;3.50;0.80;;;15.60;99.90;;;-146.41;100.00;57768.22;5000273;28;20051;-67
2022/06/08 05:35:55;;;;;;;5.25;1.10;;;15.70;99.90;;;-146.41;100.00;57768.22;4997633;28;20428;-67
2022/06/08 05:38:22;;;;;;;3.67;0.90;;;15.70;99.90;;;-146.41;100.00;57768.22;4995157;28;20121;-67
2022/06/08 05:40:50;;;;;;;7.90;1.38;;;15.90;99.90;;;-146.41;100.00;57768.22;4996859;28;20104;-66
2022/06/08 05:43:18;;;;;;;3.90;1.02;;;16.00;99.90;;;-146.41;100.00;57768.22;4996304;28;20088;-65
2022/06/08 05:45:46;;;;;;;5.40;0.95;;;16.20;99.90;;;-146.41;100.00;57768.22;4995588;28;20552;-65
2022/06/08 05:48:14;;;;;;;3.75;1.10;;;16.30;99.90;;;-146.41;100.00;57768.22;4993940;28;20052;-65
2022/06/08 05:50:43;;;;;;;4.22;0.82;;;16.40;99.90;;;-146.41;100.00;57768.22;4990264;28;20486;-65
2022/06/08 05:53:11;;;;;;;5.90;0.85;;;16.20;99.90;;;-146.41;100.00;57768.22;4991108;28;20132;-66
2022/06/08 05:55:39;;;;;;;3.83;0.70;;;16.10;99.90;;;-146.41;100.00;57768.22;4990439;28;20052;-65
2022/06/08 05:58:06;;;;;;;6.10;1.02;;;16.10;99.90;;;-146.41;100.00;57768.22;4994721;28;20086;-67
2022/06/08 06:00:39;;;;;;;6.57;0.98;;;16.30;99.90;;;-146.41;100.00;57768.22;4997899;28;20136;-66
2022/06/08 06:03:07;;;;;;;7.18;0.70;;;16.60;99.90;;;-146.41;100.00;57768.22;4997317;28;20099;-67
2022/06/08 06:05:39;;;;;;;3.42;0.80;;;16.80;99.90;;;-146.41;100.00;57768.22;4993173;28;20145;-66
2022/06/08 06:08:08;;;;;;;3.88;0.82;;;;;;;-146.41;100.00;57768.22;4999356;28;20073;-65
2022/06/08 06:10:37;;;;;;;4.57;0.93;;;17.30;99.90;;;-146.41;100.00;57768.22;4992779;28;20513;-66
2022/06/08 06:13:05;;;;;;;6.30;0.80;;;17.60;99.90;;;-146.41;100.00;57768.22;4992739;28;20097;-67
2022/06/08 06:15:32;;;;;;;9.63;1.00;;;17.80;99.90;;;-146.41;100.00;57768.22;4999184;28;20042;-66
2022/06/08 06:18:00;;;;;;;11.73;1.20;;;17.90;99.90;;;-146.41;100.00;57768.22;4996885;28;20126;-66
2022/06/08 06:20:27;;;;;;;4.88;1.10;;;17.90;99.90;;;-146.41;100.00;57768.22;4992937;28;20074;-66
2022/06/08 06:22:54;;;;;;;5.63;1.05;;;17.80;99.90;;;-146.41;100.00;57768.22;4989759;28;20134;-66
2022/06/08 06:25:21;;;;;;;5.70;1.20;;;17.90;99.90;;;-146.41;100.00;57768.22;4989399;28;20114;-66
2022/06/08 06:27:49;;;;;;;3.50;0.68;;;17.90;99.90;;;-146.41;100.00;57768.22;4989938;28;20435;-65
2022/06/08 06:30:17;;;;;;;6.65;0.90;;;18.10;99.90;;;-146.41;100.00;57768.22;4973856;28;20081;-66
2022/06/08 06:32:46;;;;;;;4.35;0.77;;;18.20;99.90;;;-146.41;100.00;57768.22;4995733;28;20096;-66
2022/06/08 06:35:25;;;;;;;2.33;0.50;;;18.50;99.90;;;-146.41;100.00;57768.22;4992590;28;20054;-67
2022/06/08 06:37:52;;;;;;;4.45;0.90;;;18.90;99.90;;;-146.41;100.00;57768.22;4977009;28;20046;-65
2022/06/08 06:40:20;;;;;;;7.93;1.00;;;19.20;99.90;;;-146.41;100.00;57768.22;4994218;28;20047;-67
2022/06/08 06:42:48;;;;;;;5.43;0.95;;;19.20;99.90;;;-146.41;100.00;57768.22;4997700;28;20057;-67
2022/06/08 06:45:16;;;;;;;11.07;0.80;;;19.10;99.90;;;-146.41;100.00;57768.22;4991970;28;20086;-67
2022/06/08 06:47:43;;;;;;;7.10;0.80;;;19.00;99.90;;;-146.41;100.00;57768.22;4990120;28;20099;-67
2022/06/08 06:50:15;;;;;;;7.60;0.80;;;18.70;99.90;;;-146.41;100.00;57768.22;4996193;28;20093;-67
2022/06/08 06:52:44;;;;;;;;;;;18.60;99.90;;;-146.41;100.00;57768.22;4994315;28;20149;-67
2022/06/08 06:55:24;;;;;;;4.05;0.80;;;18.40;99.90;;;-146.41;100.00;57768.22;4991994;28;20408;-66
2022/06/08 06:57:52;;;;;;;5.03;0.82;;;18.40;99.90;;;-146.41;100.00;57768.22;4986935;28;20133;-68
2022/06/08 07:00:20;;;;;;;3.95;0.70;;;18.50;99.90;;;-146.41;100.00;57768.22;4989963;28;20480;-67
2022/06/08 07:02:47;;;;;;;4.18;0.85;;;18.50;99.90;;;-146.41;100.00;57768.22;4991101;28;20074;-66
2022/06/08 07:05:20;;;;;;;7.05;1.35;;;18.60;99.90;;;-146.41;100.00;57768.22;4985985;28;20137;-67
2022/06/08 07:07:47;;;;;;;2.67;0.60;;;18.70;99.90;;;-146.41;100.00;57768.22;4990076;28;20046;-66
2022/06/08 07:10:15;;;;;;;6.43;0.98;;;18.70;99.90;;;-146.41;100.00;57768.22;4996301;28;20137;-66
2022/06/08 07:12:43;;;;;;;7.05;0.85;;;18.80;99.90;;;-146.41;100.00;57768.22;4989718;28;20523;-66
2022/06/08 07:15:18;;;;;;;5.82;0.80;;;18.70;99.90;;;-146.41;100.00;57768.22;4994131;28;20129;-66
2022/06/08 07:17:45;;;;;;;5.38;0.90;;;18.80;99.90;;;-146.41;100.00;57768.22;4992134;28;20121;-65
2022/06/08 07:20:13;;;;;;;4.55;0.95;;;18.70;99.90;;;-146.41;100.00;57768.22;4993920;28;20054;-66
2022/06/08 07:22:40;;;;;;;7.63;0.90;;;18.70;99.90;;;-146.41;100.00;57768.22;4992831;28;20129;-67
2022/06/08 07:25:09;;;;;;;5.75;0.80;;;18.60;99.90;;;-146.41;100.00;57768.22;4988151;28;20134;-66
2022/06/08 07:27:37;;;;;;;8.80;1.08;;;18.50;99.90;;;-146.41;100.00;57768.22;4989536;28;20132;-66
2022/06/08 07:30:06;;;;;;;5.03;0.85;;;18.40;99.90;;;-146.41;100.00;57768.22;4988659;28;20508;-65
2022/06/08 07:32:34;;;;;;;4.00;0.60;;;18.60;99.90;;;-146.41;100.00;57768.22;4988092;28;20055;-65
2022/06/08 07:35:05;;;;;;;4.68;0.68;;;18.80;99.90;;;-146.41;100.00;57768.22;4990473;28;20046;-64
2022/06/08 07:37:32;;;;;;;4.50;0.70;;;18.80;99.90;;;-146.41;100.00;57768.22;4975075;28;20050;-65
2022/06/08 07:39:58;;;;;;;6.85;0.85;;;18.70;99.90;;;-146.41;100.00;57768.22;4992434;28;20165;-64
2022/06/08 07:42:25;;;;;;;3.15;0.70;;;18.80;99.90;;;-146.41;100.00;57768.22;4991951;28;20508;-65
2022/06/08 07:44:52;;;;;;;4.80;0.82;;;18.90;99.90;;;-146.41;100.00;57768.22;4988648;28;20081;-65
2022/06/08 07:47:19;;;;;;;4.93;0.90;;;19.00;99.90;;;-146.41;100.00;57768.22;4990460;28;20057;-66
2022/06/08 07:49:51;;;;;;;6.15;0.80;;;19.20;99.90;;;-146.41;100.00;57768.22;4994998;28;20417;-67
2022/06/08 07:52:22;;;;;;;6.32;0.75;;;19.40;99.90;;;-146.41;100.00;57768.22;4979293;28;20054;-67
2022/06/08 07:54:50;;;;;;;4.88;1.00;;;19.70;99.90;;;-146.41;100.00;57768.22;4989896;28;20460;-66
2022/06/08 07:57:29;;;;;;;8.23;0.80;;;19.70;99.90;;;-146.41;100.00;57768.22;4985991;28;20100;-66
2022/06/08 07:59:55;;;;;;;7.20;0.98;;;19.80;99.90;;;-146.41;100.00;57768.22;4981600;28;20064;-66
2022/06/08 08:02:22;;;;;;;8.43;1.10;;;19.90;99.90;;;-146.41;100.00;57768.22;4989564;28;20124;-66
2022/06/08 08:04:50;;;;;;;8.18;0.85;;;20.10;99.90;;;-146.41;100.00;57768.22;4990985;28;20584;-65
2022/06/08 08:07:17;;;;;;;3.75;0.70;;;20.10;99.90;;;-146.41;100.00;57768.22;4991788;28;20509;-66
2022/06/08 08:09:44;;;;;;;18.67;1.00;;;20.10;99.90;;;-146.41;100.00;57768.22;4990373;28;20073;-67
2022/06/08 08:12:12;;;;;;;8.23;0.85;;;20.20;99.90;;;-146.41;100.00;57768.22;4971466;28;20085;-66
2022/06/08 08:14:40;;;;;;;4.88;1.23;;;20.40;99.90;;;-146.41;100.00;57768.22;4992229;28;20514;-66
2022/06/08 08:17:08;;;;;;;5.38;0.70;;;20.30;99.90;;;-146.41;100.00;57768.22;4976339;28;20137;-66
2022/06/08 08:19:38;;;;;;;6.57;0.90;;;20.30;99.90;;;-146.41;100.00;57768.22;4990572;28;20056;-66
2022/06/08 08:22:06;;;;;;;6.95;0.70;;;20.50;99.90;;;-146.41;100.00;57768.22;4984638;28;20046;-65
2022/06/08 08:24:33;;;;;;;6.63;0.73;;;20.40;99.90;;;-146.41;100.00;57768.22;4992736;28;20165;-66
2022/06/08 08:27:01;;;;;;;6.88;0.60;;;20.70;99.90;;;-146.41;100.00;57768.22;4994179;28;20054;-66
2022/06/08 08:29:29;;;;;;;4.82;0.77;;;21.00;99.90;;;-146.41;100.00;57768.22;4987107;28;20042;-65
2022/06/08 08:31:56;;;;;;;7.00;0.85;;;21.10;99.90;;;-146.41;100.00;57768.22;4992494;28;20086;-64
2022/06/08 08:34:23;;;;;;;4.32;0.70;;;21.40;99.90;;;-146.41;100.00;57768.22;4989536;28;20133;-65
2022/06/08 08:36:50;;;;;;;4.68;0.60;;;21.50;99.90;;;-146.41;100.00;57768.22;4999756;28;20045;-66
2022/06/08 08:39:18;;;;;;;7.03;0.60;;;21.60;99.90;;;-146.41;100.00;57768.22;4993853;28;20124;-66
2022/06/08 08:44:45;;;;;;;2.30;0.50;;;21.80;99.90;;;-146.41;100.00;57768.22;4995485;28;20042;-66
2022/06/08 08:47:38;;;;;;;10.90;1.10;;;21.40;99.90;;;-146.41;100.00;57768.22;4979002;28;20456;-67
2022/06/08 08:50:48;;;;;;;4.80;0.70;;;21.60;99.90;;;-146.41;100.00;57768.22;4994436;28;20164;-67
2022/06/08 08:53:47;;;;;;;4.55;0.60;;;21.40;99.90;;;-146.41;100.00;57768.22;4977042;28;20158;-67
2022/06/08 08:56:25;;;;;;;3.95;0.77;;;21.10;99.90;;;-146.41;100.00;57768.22;4977197;28;20157;-66
2022/06/08 08:58:52;;;;;;;3.22;0.52;;;21.00;99.90;;;-146.41;100.00;57768.22;4993505;28;20125;-65
2022/06/08 09:01:28;;;;;;;3.65;0.68;;;21.10;99.90;;;-146.41;100.00;57768.22;4995429;28;20052;-66
2022/06/08 09:04:00;;;;;;;5.28;0.90;;;21.40;99.90;;;-146.41;100.00;57768.22;4994381;28;20069;-66
2022/06/08 09:06:33;;;;;;;3.30;0.60;;;21.60;99.90;;;-146.41;100.00;57768.22;4994641;28;20089;-66
2022/06/08 09:09:05;;;;;;;5.38;0.65;;;21.80;99.90;;;-146.41;100.00;57768.22;4997174;28;20108;-65
2022/06/08 09:11:37;;;;;;;9.27;0.70;;;21.70;99.90;;;-146.41;100.00;57768.22;4978539;28;20085;-66
2022/06/08 09:14:15;;;;;;;11.13;0.70;;;21.30;99.90;;;-146.41;100.00;57768.22;4994258;28;20166;-65
2022/06/08 09:16:46;;;;;;;9.75;0.88;;;21.10;99.90;;;-146.41;100.00;57768.22;4996153;28;20140;-65
2022/06/08 09:19:26;;;;;;;5.70;0.60;;;21.30;99.90;;;-146.41;100.00;57768.22;4995649;28;20060;-65
2022/06/08 09:22:24;;;;;;;3.90;0.50;;;22.00;99.90;;;-146.41;100.00;57768.22;4994192;28;20133;-66
2022/06/08 09:24:51;;;;;;;3.53;0.73;;;22.10;99.90;;;-146.41;100.00;57768.22;4989845;28;20084;-66
2022/06/08 09:27:34;;;;;;;5.45;0.65;;;22.20;99.90;;;-146.41;100.00;57768.22;4994898;28;20053;-66
2022/06/08 09:30:02;;;;;;;4.57;0.75;;;22.10;99.90;;;-146.41;100.00;57768.22;4991092;28;20501;-65
2022/06/08 09:32:49;;;;;;;5.45;0.70;;;21.80;99.90;;;-146.41;100.00;57768.22;4993101;28;20132;-65
2022/06/08 09:35:29;;;;;;;3.25;0.88;;;21.60;99.90;;;-146.41;100.00;57768.22;4995502;28;20057;-65
2022/06/08 09:38:04;;;;;;;13.63;1.95;;;21.20;99.90;;;-146.41;100.00;57768.22;4979278;28;20136;-65
2022/06/08 09:41:13;;;;;;;5.78;0.93;;;20.80;99.90;;;-146.41;100.00;57768.22;4994091;28;20056;-65
2022/06/08 09:44:21;;;;;;;4.97;0.70;;;20.60;99.90;;;-146.41;100.00;57768.22;4992594;28;20092;-65
2022/06/08 09:53:03;;;;;;;3.80;0.80;;;20.00;99.90;;;-146.41;100.00;57768.22;4994511;28;20137;-65
2022/06/08 09:55:59;;;;;;;8.45;0.90;;;19.90;99.90;;;-146.41;100.00;57768.22;4994266;28;20097;-66
2022/06/08 09:58:55;;;;;;;6.07;0.80;;;19.80;99.90;;;-146.41;100.00;57768.22;4979988;28;20603;-65
2022/06/08 10:01:35;;;;;;;6.55;0.70;;;19.50;99.90;;;-146.41;100.00;57768.22;4972621;28;20054;-66
2022/06/08 10:04:52;;;;;;;6.85;0.60;;;19.50;99.90;;;-146.41;100.00;57768.22;4976161;28;20101;-66
2022/06/08 10:08:04;;;;;;;6.40;0.70;;;19.70;99.90;;;-146.41;100.00;57768.22;4991747;28;20423;-66
2022/06/08 10:10:54;;;;;;;4.70;0.60;;;19.70;99.90;;;-146.41;100.00;57768.22;4980234;28;20512;-66
2022/06/08 10:13:39;;;;;;;7.55;1.35;;;19.70;99.90;;;-146.41;100.00;57768.22;4974759;28;21488;-64
2022/06/08 10:16:22;;;;;;;7.93;2.10;;;19.70;99.90;;;-146.41;100.00;57768.22;4995423;28;20050;-66
2022/06/08 10:18:56;;;;;;;7.80;2.13;;;19.70;99.90;;;-146.41;100.00;57768.22;4977595;28;20151;-65
2022/06/08 10:21:27;;;;;;;7.82;1.10;;;19.70;99.90;;;-146.41;100.00;57768.22;4963821;28;20118;-66
2022/06/08 10:24:25;;;;;;;8.23;1.98;;;19.60;99.90;;;-146.41;100.00;57768.22;4973581;28;20142;-66
2022/06/08 10:27:12;;;;;;;13.68;3.58;;;19.50;99.90;;;-146.41;100.00;57768.22;4975935;28;20191;-66
2022/06/08 10:30:04;;;;;;;11.20;3.38;;;19.40;99.90;;;-146.41;100.00;57768.22;4993916;28;20064;-65
2022/06/08 10:33:01;;;;;;;9.32;3.40;;;19.40;99.90;;;-146.41;100.00;57768.22;4994216;28;20104;-66
2022/06/08 10:35:41;;;;;;;10.40;2.83;;;19.50;99.90;;;-146.41;100.00;57768.22;4972352;28;20130;-66
2022/06/08 10:38:21;;;;;;;6.78;1.40;;;19.80;99.90;;;-146.41;100.00;57768.22;4971283;28;20050;-66